sensor_id;sensor_type;location;lat;lon;timestamp;P1;durP1;ratioP1;P2;durP2;ratioP2
37517;SDS011;23366;52.498;13.446;2023-05-07T00:01:22;15.38;;;8.00;;
37517;SDS011;23366;52.498;13.446;2023-05-07T00:03:48;11.60;;;8.35;;
37517;SDS011;23366;52.498;13.446;2023-05-07T00:06:14;8.77;;;6.32;;
37517;SDS011;23366;52.498;13.446;2023-05-07T00:08:39;14.40;;;7.85;;
37517;SDS011;23366;52.498;13.446;2023-05-07T00:11:05;14.60;;;9.02;;
37517;SDS011;23366;52.498;13.446;2023-05-07T00:13:30;16.95;;;8.05;;
37517;SDS011;23366;52.498;13.446;2023-05-07T00:16:00;13.07;;;8.73;;
37517;SDS011;23366;52.498;13.446;2023-05-07T00:18:27;15.45;;;8.00;;
37517;SDS011;23366;52.498;13.446;2023-05-07T00:20:52;11.48;;;7.07;;
37517;SDS011;23366;52.498;13.446;2023-05-07T00:23:18;11.23;;;7.70;;
37517;SDS011;23366;52.498;13.446;2023-05-07T00:25:43;8.13;;;5.50;;
37517;SDS011;23366;52.498;13.446;2023-05-07T00:28:09;11.25;;;8.13;;
37517;SDS011;23366;52.498;13.446;2023-05-07T00:30:34;12.45;;;7.07;;
37517;SDS011;23366;52.498;13.446;2023-05-07T00:33:00;10.50;;;6.97;;
37517;SDS011;23366;52.498;13.446;2023-05-07T00:35:25;13.45;;;6.75;;
37517;SDS011;23366;52.498;13.446;2023-05-07T00:37:51;10.50;;;7.15;;
37517;SDS011;23366;52.498;13.446;2023-05-07T00:40:16;11.07;;;7.63;;
37517;SDS011;23366;52.498;13.446;2023-05-07T00:42:42;10.75;;;7.93;;
37517;SDS011;23366;52.498;13.446;2023-05-07T00:45:11;13.25;;;7.80;;
37517;SDS011;23366;52.498;13.446;2023-05-07T00:47:40;10.20;;;7.25;;
37517;SDS011;23366;52.498;13.446;2023-05-07T00:50:06;11.75;;;7.28;;
37517;SDS011;23366;52.498;13.446;2023-05-07T00:52:32;13.30;;;7.00;;
37517;SDS011;23366;52.498;13.446;2023-05-07T00:54:59;10.23;;;8.18;;
37517;SDS011;23366;52.498;13.446;2023-05-07T00:57:29;10.83;;;6.90;;
37517;SDS011;23366;52.498;13.446;2023-05-07T01:00:00;10.27;;;6.95;;
37517;SDS011;23366;52.498;13.446;2023-05-07T01:02:26;7.47;;;6.55;;
37517;SDS011;23366;52.498;13.446;2023-05-07T01:04:52;8.60;;;6.63;;
37517;SDS011;23366;52.498;13.446;2023-05-07T01:07:17;11.85;;;7.38;;
37517;SDS011;23366;52.498;13.446;2023-05-07T01:09:43;11.05;;;8.15;;
37517;SDS011;23366;52.498;13.446;2023-05-07T01:12:09;13.82;;;8.35;;
37517;SDS011;23366;52.498;13.446;2023-05-07T01:14:35;9.70;;;6.47;;
37517;SDS011;23366;52.498;13.446;2023-05-07T01:17:01;10.05;;;7.32;;
37517;SDS011;23366;52.498;13.446;2023-05-07T01:19:27;9.60;;;6.50;;
37517;SDS011;23366;52.498;13.446;2023-05-07T01:21:55;13.57;;;8.13;;
37517;SDS011;23366;52.498;13.446;2023-05-07T01:24:27;10.65;;;7.15;;
37517;SDS011;23366;52.498;13.446;2023-05-07T01:26:53;10.18;;;7.38;;
37517;SDS011;23366;52.498;13.446;2023-05-07T01:29:18;10.30;;;6.03;;
37517;SDS011;23366;52.498;13.446;2023-05-07T01:31:44;9.90;;;6.40;;
37517;SDS011;23366;52.498;13.446;2023-05-07T01:34:09;11.02;;;6.47;;
37517;SDS011;23366;52.498;13.446;2023-05-07T01:36:38;13.85;;;8.15;;
37517;SDS011;23366;52.498;13.446;2023-05-07T01:39:05;11.73;;;7.43;;
37517;SDS011;23366;52.498;13.446;2023-05-07T01:41:31;10.32;;;5.72;;
37517;SDS011;23366;52.498;13.446;2023-05-07T01:43:56;11.02;;;6.22;;
37517;SDS011;23366;52.498;13.446;2023-05-07T01:46:24;7.03;;;6.22;;
37517;SDS011;23366;52.498;13.446;2023-05-07T01:48:50;11.10;;;6.65;;
37517;SDS011;23366;52.498;13.446;2023-05-07T01:51:16;13.43;;;7.72;;
37517;SDS011;23366;52.498;13.446;2023-05-07T01:53:41;8.90;;;5.78;;
37517;SDS011;23366;52.498;13.446;2023-05-07T01:56:08;11.02;;;5.45;;
37517;SDS011;23366;52.498;13.446;2023-05-07T01:58:34;8.85;;;6.70;;
37517;SDS011;23366;52.498;13.446;2023-05-07T02:00:59;13.15;;;7.20;;
37517;SDS011;23366;52.498;13.446;2023-05-07T02:03:25;11.00;;;7.10;;
37517;SDS011;23366;52.498;13.446;2023-05-07T02:05:50;7.47;;;5.57;;
37517;SDS011;23366;52.498;13.446;2023-05-07T02:08:16;9.57;;;6.60;;
37517;SDS011;23366;52.498;13.446;2023-05-07T02:10:41;10.32;;;5.65;;
37517;SDS011;23366;52.498;13.446;2023-05-07T02:13:07;10.02;;;6.75;;
37517;SDS011;23366;52.498;13.446;2023-05-07T02:15:32;13.73;;;7.32;;
37517;SDS011;23366;52.498;13.446;2023-05-07T02:17:59;8.43;;;6.72;;
37517;SDS011;23366;52.498;13.446;2023-05-07T02:20:28;11.07;;;6.30;;
37517;SDS011;23366;52.498;13.446;2023-05-07T02:22:54;13.20;;;6.75;;
37517;SDS011;23366;52.498;13.446;2023-05-07T02:25:20;12.15;;;8.27;;
37517;SDS011;23366;52.498;13.446;2023-05-07T02:27:45;15.15;;;7.47;;
37517;SDS011;23366;52.498;13.446;2023-05-07T02:30:11;12.00;;;7.57;;
37517;SDS011;23366;52.498;13.446;2023-05-07T02:32:36;10.40;;;6.75;;
37517;SDS011;23366;52.498;13.446;2023-05-07T02:35:02;9.35;;;6.80;;
37517;SDS011;23366;52.498;13.446;2023-05-07T02:37:27;11.73;;;7.10;;
37517;SDS011;23366;52.498;13.446;2023-05-07T02:39:53;10.13;;;6.47;;
37517;SDS011;23366;52.498;13.446;2023-05-07T02:42:18;9.18;;;6.63;;
37517;SDS011;23366;52.498;13.446;2023-05-07T02:44:44;11.57;;;7.25;;
37517;SDS011;23366;52.498;13.446;2023-05-07T02:47:09;13.05;;;7.35;;
37517;SDS011;23366;52.498;13.446;2023-05-07T02:49:35;7.63;;;6.18;;
37517;SDS011;23366;52.498;13.446;2023-05-07T02:52:00;11.25;;;6.38;;
37517;SDS011;23366;52.498;13.446;2023-05-07T02:54:26;11.52;;;6.68;;
37517;SDS011;23366;52.498;13.446;2023-05-07T02:56:51;11.20;;;6.65;;
37517;SDS011;23366;52.498;13.446;2023-05-07T02:59:17;8.43;;;6.18;;
37517;SDS011;23366;52.498;13.446;2023-05-07T03:01:42;10.52;;;6.35;;
37517;SDS011;23366;52.498;13.446;2023-05-07T03:04:10;10.20;;;6.55;;
37517;SDS011;23366;52.498;13.446;2023-05-07T03:06:35;10.63;;;6.35;;
37517;SDS011;23366;52.498;13.446;2023-05-07T03:09:01;7.78;;;5.75;;
37517;SDS011;23366;52.498;13.446;2023-05-07T03:11:26;8.68;;;5.88;;
37517;SDS011;23366;52.498;13.446;2023-05-07T03:13:52;7.28;;;5.45;;
37517;SDS011;23366;52.498;13.446;2023-05-07T03:16:17;11.20;;;7.40;;
37517;SDS011;23366;52.498;13.446;2023-05-07T03:18:43;10.23;;;5.93;;
37517;SDS011;23366;52.498;13.446;2023-05-07T03:21:08;11.05;;;6.53;;
37517;SDS011;23366;52.498;13.446;2023-05-07T03:23:34;10.35;;;6.70;;
37517;SDS011;23366;52.498;13.446;2023-05-07T03:25:59;8.45;;;5.80;;
37517;SDS011;23366;52.498;13.446;2023-05-07T03:28:25;10.18;;;5.65;;
37517;SDS011;23366;52.498;13.446;2023-05-07T03:30:50;11.07;;;6.65;;
37517;SDS011;23366;52.498;13.446;2023-05-07T03:33:16;9.75;;;6.10;;
37517;SDS011;23366;52.498;13.446;2023-05-07T03:35:41;10.10;;;6.47;;
37517;SDS011;23366;52.498;13.446;2023-05-07T03:38:07;10.05;;;6.28;;
37517;SDS011;23366;52.498;13.446;2023-05-07T03:40:32;8.98;;;6.00;;
37517;SDS011;23366;52.498;13.446;2023-05-07T03:42:59;8.07;;;5.93;;
37517;SDS011;23366;52.498;13.446;2023-05-07T03:45:25;9.07;;;6.55;;
37517;SDS011;23366;52.498;13.446;2023-05-07T03:47:50;11.13;;;6.80;;
37517;SDS011;23366;52.498;13.446;2023-05-07T03:50:16;10.52;;;7.35;;
37517;SDS011;23366;52.498;13.446;2023-05-07T03:52:41;10.25;;;6.38;;
37517;SDS011;23366;52.498;13.446;2023-05-07T03:55:07;17.40;;;6.72;;
37517;SDS011;23366;52.498;13.446;2023-05-07T03:57:33;10.82;;;6.57;;
37517;SDS011;23366;52.498;13.446;2023-05-07T03:59:58;11.57;;;7.07;;
37517;SDS011;23366;52.498;13.446;2023-05-07T04:02:24;7.80;;;6.10;;
37517;SDS011;23366;52.498;13.446;2023-05-07T04:04:49;10.25;;;6.65;;
37517;SDS011;23366;52.498;13.446;2023-05-07T04:07:15;7.25;;;5.15;;
37517;SDS011;23366;52.498;13.446;2023-05-07T04:09:41;10.10;;;6.55;;
37517;SDS011;23366;52.498;13.446;2023-05-07T04:12:06;10.27;;;5.75;;
37517;SDS011;23366;52.498;13.446;2023-05-07T04:14:31;11.00;;;6.45;;
37517;SDS011;23366;52.498;13.446;2023-05-07T04:16:58;7.65;;;5.68;;
37517;SDS011;23366;52.498;13.446;2023-05-07T04:19:24;12.85;;;6.53;;
37517;SDS011;23366;52.498;13.446;2023-05-07T04:21:50;7.25;;;5.25;;
37517;SDS011;23366;52.498;13.446;2023-05-07T04:24:15;7.50;;;5.75;;
37517;SDS011;23366;52.498;13.446;2023-05-07T04:26:41;10.32;;;6.75;;
37517;SDS011;23366;52.498;13.446;2023-05-07T04:29:06;10.07;;;6.25;;
37517;SDS011;23366;52.498;13.446;2023-05-07T04:31:31;9.18;;;5.85;;
37517;SDS011;23366;52.498;13.446;2023-05-07T04:33:57;6.82;;;5.13;;
37517;SDS011;23366;52.498;13.446;2023-05-07T04:36:22;9.35;;;5.22;;
37517;SDS011;23366;52.498;13.446;2023-05-07T04:38:52;9.38;;;5.03;;
37517;SDS011;23366;52.498;13.446;2023-05-07T04:41:18;5.75;;;5.15;;
37517;SDS011;23366;52.498;13.446;2023-05-07T04:43:43;8.13;;;5.57;;
37517;SDS011;23366;52.498;13.446;2023-05-07T04:46:09;7.15;;;5.05;;
37517;SDS011;23366;52.498;13.446;2023-05-07T04:48:34;8.30;;;5.55;;
37517;SDS011;23366;52.498;13.446;2023-05-07T04:51:00;13.52;;;6.57;;
37517;SDS011;23366;52.498;13.446;2023-05-07T04:53:25;9.02;;;5.07;;
37517;SDS011;23366;52.498;13.446;2023-05-07T04:55:57;10.45;;;6.22;;
37517;SDS011;23366;52.498;13.446;2023-05-07T04:58:23;7.15;;;5.32;;
37517;SDS011;23366;52.498;13.446;2023-05-07T05:00:49;10.02;;;4.95;;
37517;SDS011;23366;52.498;13.446;2023-05-07T05:03:14;8.13;;;4.63;;
37517;SDS011;23366;52.498;13.446;2023-05-07T05:05:40;7.10;;;4.97;;
37517;SDS011;23366;52.498;13.446;2023-05-07T05:08:05;5.93;;;3.90;;
37517;SDS011;23366;52.498;13.446;2023-05-07T05:10:31;7.75;;;4.35;;
37517;SDS011;23366;52.498;13.446;2023-05-07T05:12:56;5.22;;;4.45;;
37517;SDS011;23366;52.498;13.446;2023-05-07T05:15:22;5.30;;;3.78;;
37517;SDS011;23366;52.498;13.446;2023-05-07T05:17:47;5.32;;;4.20;;
37517;SDS011;23366;52.498;13.446;2023-05-07T05:20:13;6.20;;;3.92;;
37517;SDS011;23366;52.498;13.446;2023-05-07T05:22:39;7.28;;;4.88;;
37517;SDS011;23366;52.498;13.446;2023-05-07T05:25:06;9.05;;;4.65;;
37517;SDS011;23366;52.498;13.446;2023-05-07T05:27:31;9.05;;;5.47;;
37517;SDS011;23366;52.498;13.446;2023-05-07T05:29:57;7.18;;;4.55;;
37517;SDS011;23366;52.498;13.446;2023-05-07T05:32:22;6.22;;;4.25;;
37517;SDS011;23366;52.498;13.446;2023-05-07T05:34:48;6.05;;;4.20;;
37517;SDS011;23366;52.498;13.446;2023-05-07T05:37:13;8.32;;;4.90;;
37517;SDS011;23366;52.498;13.446;2023-05-07T05:39:39;7.63;;;4.82;;
37517;SDS011;23366;52.498;13.446;2023-05-07T05:42:04;6.65;;;4.35;;
37517;SDS011;23366;52.498;13.446;2023-05-07T05:44:30;5.65;;;4.95;;
37517;SDS011;23366;52.498;13.446;2023-05-07T05:46:55;7.15;;;4.60;;
37517;SDS011;23366;52.498;13.446;2023-05-07T05:49:22;6.65;;;4.80;;
37517;SDS011;23366;52.498;13.446;2023-05-07T05:51:48;8.88;;;5.40;;
37517;SDS011;23366;52.498;13.446;2023-05-07T05:54:13;6.93;;;4.65;;
37517;SDS011;23366;52.498;13.446;2023-05-07T05:56:40;8.13;;;4.15;;
37517;SDS011;23366;52.498;13.446;2023-05-07T05:59:05;6.88;;;3.67;;
37517;SDS011;23366;52.498;13.446;2023-05-07T06:01:31;8.93;;;5.28;;
37517;SDS011;23366;52.498;13.446;2023-05-07T06:03:57;7.65;;;4.57;;
37517;SDS011;23366;52.498;13.446;2023-05-07T06:06:23;6.05;;;3.88;;
37517;SDS011;23366;52.498;13.446;2023-05-07T06:08:49;4.80;;;3.45;;
37517;SDS011;23366;52.498;13.446;2023-05-07T06:11:14;5.88;;;4.32;;
37517;SDS011;23366;52.498;13.446;2023-05-07T06:13:40;9.35;;;4.22;;
37517;SDS011;23366;52.498;13.446;2023-05-07T06:16:05;9.10;;;3.92;;
37517;SDS011;23366;52.498;13.446;2023-05-07T06:18:31;7.32;;;4.97;;
37517;SDS011;23366;52.498;13.446;2023-05-07T06:20:56;6.88;;;4.60;;
37517;SDS011;23366;52.498;13.446;2023-05-07T06:23:22;6.78;;;4.45;;
37517;SDS011;23366;52.498;13.446;2023-05-07T06:25:48;7.22;;;4.90;;
37517;SDS011;23366;52.498;13.446;2023-05-07T06:28:15;7.45;;;5.28;;
37517;SDS011;23366;52.498;13.446;2023-05-07T06:30:40;8.30;;;4.22;;
37517;SDS011;23366;52.498;13.446;2023-05-07T06:33:06;5.13;;;3.80;;
37517;SDS011;23366;52.498;13.446;2023-05-07T06:35:31;5.90;;;4.50;;
37517;SDS011;23366;52.498;13.446;2023-05-07T06:37:57;4.30;;;3.13;;
37517;SDS011;23366;52.498;13.446;2023-05-07T06:40:22;7.30;;;4.25;;
37517;SDS011;23366;52.498;13.446;2023-05-07T06:42:48;7.60;;;3.60;;
37517;SDS011;23366;52.498;13.446;2023-05-07T06:45:13;6.40;;;4.50;;
37517;SDS011;23366;52.498;13.446;2023-05-07T06:47:39;7.85;;;4.07;;
37517;SDS011;23366;52.498;13.446;2023-05-07T06:50:04;5.85;;;3.72;;
37517;SDS011;23366;52.498;13.446;2023-05-07T06:52:30;5.43;;;3.90;;
37517;SDS011;23366;52.498;13.446;2023-05-07T06:54:56;5.63;;;4.30;;
37517;SDS011;23366;52.498;13.446;2023-05-07T06:57:21;4.57;;;3.33;;
37517;SDS011;23366;52.498;13.446;2023-05-07T06:59:47;7.55;;;4.45;;
37517;SDS011;23366;52.498;13.446;2023-05-07T07:02:12;8.10;;;4.60;;
37517;SDS011;23366;52.498;13.446;2023-05-07T07:04:38;6.53;;;3.13;;
37517;SDS011;23366;52.498;13.446;2023-05-07T07:07:03;4.68;;;3.30;;
37517;SDS011;23366;52.498;13.446;2023-05-07T07:09:29;6.45;;;3.00;;
37517;SDS011;23366;52.498;13.446;2023-05-07T07:11:54;4.75;;;2.60;;
37517;SDS011;23366;52.498;13.446;2023-05-07T07:14:20;5.35;;;3.03;;
37517;SDS011;23366;52.498;13.446;2023-05-07T07:16:45;8.85;;;3.85;;
37517;SDS011;23366;52.498;13.446;2023-05-07T07:19:11;3.95;;;2.35;;
37517;SDS011;23366;52.498;13.446;2023-05-07T07:21:37;6.95;;;2.90;;
37517;SDS011;23366;52.498;13.446;2023-05-07T07:24:03;7.43;;;2.92;;
37517;SDS011;23366;52.498;13.446;2023-05-07T07:26:28;5.95;;;2.47;;
37517;SDS011;23366;52.498;13.446;2023-05-07T07:28:54;4.15;;;2.45;;
37517;SDS011;23366;52.498;13.446;2023-05-07T07:31:22;3.30;;;1.90;;
37517;SDS011;23366;52.498;13.446;2023-05-07T07:33:47;1.55;;;1.42;;
37517;SDS011;23366;52.498;13.446;2023-05-07T07:36:15;4.32;;;1.83;;
37517;SDS011;23366;52.498;13.446;2023-05-07T07:38:40;5.25;;;1.88;;
37517;SDS011;23366;52.498;13.446;2023-05-07T07:41:07;3.15;;;1.73;;
37517;SDS011;23366;52.498;13.446;2023-05-07T07:43:33;3.22;;;1.80;;
37517;SDS011;23366;52.498;13.446;2023-05-07T07:46:00;2.90;;;1.75;;
37517;SDS011;23366;52.498;13.446;2023-05-07T07:48:26;2.05;;;1.17;;
37517;SDS011;23366;52.498;13.446;2023-05-07T07:50:51;3.08;;;1.60;;
37517;SDS011;23366;52.498;13.446;2023-05-07T07:53:17;3.00;;;1.67;;
37517;SDS011;23366;52.498;13.446;2023-05-07T07:55:43;2.25;;;1.20;;
37517;SDS011;23366;52.498;13.446;2023-05-07T07:58:09;2.42;;;1.50;;
37517;SDS011;23366;52.498;13.446;2023-05-07T08:00:34;2.13;;;0.90;;
37517;SDS011;23366;52.498;13.446;2023-05-07T08:03:01;6.25;;;1.75;;
37517;SDS011;23366;52.498;13.446;2023-05-07T08:05:28;2.03;;;1.20;;
37517;SDS011;23366;52.498;13.446;2023-05-07T08:07:53;2.50;;;1.42;;
37517;SDS011;23366;52.498;13.446;2023-05-07T08:10:19;2.75;;;1.58;;
37517;SDS011;23366;52.498;13.446;2023-05-07T08:12:48;1.88;;;1.13;;
37517;SDS011;23366;52.498;13.446;2023-05-07T08:15:17;2.25;;;1.52;;
37517;SDS011;23366;52.498;13.446;2023-05-07T08:17:43;1.92;;;1.40;;
37517;SDS011;23366;52.498;13.446;2023-05-07T08:20:08;3.78;;;1.10;;
37517;SDS011;23366;52.498;13.446;2023-05-07T08:22:35;1.67;;;1.17;;
37517;SDS011;23366;52.498;13.446;2023-05-07T08:25:01;2.97;;;1.55;;
37517;SDS011;23366;52.498;13.446;2023-05-07T08:27:26;1.83;;;1.30;;
37517;SDS011;23366;52.498;13.446;2023-05-07T08:29:52;2.33;;;1.40;;
37517;SDS011;23366;52.498;13.446;2023-05-07T08:32:18;2.28;;;1.42;;
37517;SDS011;23366;52.498;13.446;2023-05-07T08:34:44;3.78;;;2.47;;
37517;SDS011;23366;52.498;13.446;2023-05-07T08:37:09;1.95;;;1.45;;
37517;SDS011;23366;52.498;13.446;2023-05-07T08:39:35;2.03;;;1.35;;
37517;SDS011;23366;52.498;13.446;2023-05-07T08:42:00;2.60;;;1.33;;
37517;SDS011;23366;52.498;13.446;2023-05-07T08:44:33;2.25;;;1.40;;
37517;SDS011;23366;52.498;13.446;2023-05-07T08:47:00;2.75;;;1.08;;
37517;SDS011;23366;52.498;13.446;2023-05-07T08:49:26;2.33;;;1.33;;
37517;SDS011;23366;52.498;13.446;2023-05-07T08:51:52;2.53;;;1.20;;
37517;SDS011;23366;52.498;13.446;2023-05-07T08:54:18;1.13;;;0.80;;
37517;SDS011;23366;52.498;13.446;2023-05-07T08:57:04;3.10;;;1.85;;
37517;SDS011;23366;52.498;13.446;2023-05-07T08:59:35;2.40;;;1.50;;
37517;SDS011;23366;52.498;13.446;2023-05-07T09:02:01;2.53;;;1.45;;
37517;SDS011;23366;52.498;13.446;2023-05-07T09:04:27;3.05;;;1.85;;
37517;SDS011;23366;52.498;13.446;2023-05-07T09:06:52;1.23;;;1.13;;
37517;SDS011;23366;52.498;13.446;2023-05-07T09:09:18;2.95;;;1.52;;
37517;SDS011;23366;52.498;13.446;2023-05-07T09:11:43;1.58;;;1.20;;
37517;SDS011;23366;52.498;13.446;2023-05-07T09:14:09;1.85;;;1.48;;
37517;SDS011;23366;52.498;13.446;2023-05-07T09:16:34;4.03;;;1.83;;
37517;SDS011;23366;52.498;13.446;2023-05-07T09:19:00;2.03;;;1.48;;
37517;SDS011;23366;52.498;13.446;2023-05-07T09:21:26;1.67;;;1.52;;
37517;SDS011;23366;52.498;13.446;2023-05-07T09:23:52;2.75;;;1.30;;
37517;SDS011;23366;52.498;13.446;2023-05-07T09:26:22;3.80;;;1.95;;
37517;SDS011;23366;52.498;13.446;2023-05-07T09:28:48;1.70;;;1.20;;
37517;SDS011;23366;52.498;13.446;2023-05-07T09:31:14;4.07;;;1.80;;
37517;SDS011;23366;52.498;13.446;2023-05-07T09:33:39;3.60;;;1.30;;
37517;SDS011;23366;52.498;13.446;2023-05-07T09:36:05;1.52;;;1.10;;
37517;SDS011;23366;52.498;13.446;2023-05-07T09:38:33;1.92;;;1.38;;
37517;SDS011;23366;52.498;13.446;2023-05-07T09:41:08;1.73;;;1.48;;
37517;SDS011;23366;52.498;13.446;2023-05-07T09:43:36;1.23;;;1.13;;
37517;SDS011;23366;52.498;13.446;2023-05-07T09:46:05;3.90;;;1.60;;
37517;SDS011;23366;52.498;13.446;2023-05-07T09:48:36;6.38;;;1.77;;
37517;SDS011;23366;52.498;13.446;2023-05-07T09:51:06;2.78;;;1.58;;
37517;SDS011;23366;52.498;13.446;2023-05-07T09:56:22;4.32;;;1.60;;
37517;SDS011;23366;52.498;13.446;2023-05-07T09:58:48;1.45;;;1.23;;
37517;SDS011;23366;52.498;13.446;2023-05-07T10:01:16;1.88;;;1.45;;
37517;SDS011;23366;52.498;13.446;2023-05-07T10:03:47;3.33;;;1.83;;
37517;SDS011;23366;52.498;13.446;2023-05-07T10:06:15;1.83;;;1.05;;
37517;SDS011;23366;52.498;13.446;2023-05-07T10:08:43;1.30;;;1.08;;
37517;SDS011;23366;52.498;13.446;2023-05-07T10:11:09;5.13;;;1.17;;
37517;SDS011;23366;52.498;13.446;2023-05-07T10:13:35;3.05;;;1.08;;
37517;SDS011;23366;52.498;13.446;2023-05-07T10:16:04;1.35;;;0.80;;
37517;SDS011;23366;52.498;13.446;2023-05-07T10:18:30;2.53;;;1.40;;
37517;SDS011;23366;52.498;13.446;2023-05-07T10:23:48;1.73;;;1.02;;
37517;SDS011;23366;52.498;13.446;2023-05-07T10:26:15;1.30;;;0.88;;
37517;SDS011;23366;52.498;13.446;2023-05-07T10:28:43;1.58;;;1.05;;
37517;SDS011;23366;52.498;13.446;2023-05-07T10:34:23;0.77;;;0.77;;
37517;SDS011;23366;52.498;13.446;2023-05-07T10:37:02;1.30;;;1.20;;
37517;SDS011;23366;52.498;13.446;2023-05-07T10:39:29;2.03;;;1.05;;
37517;SDS011;23366;52.498;13.446;2023-05-07T10:41:54;1.80;;;1.50;;
37517;SDS011;23366;52.498;13.446;2023-05-07T10:44:27;3.15;;;0.80;;
37517;SDS011;23366;52.498;13.446;2023-05-07T10:47:12;2.28;;;1.40;;
37517;SDS011;23366;52.498;13.446;2023-05-07T10:52:18;2.47;;;0.90;;
37517;SDS011;23366;52.498;13.446;2023-05-07T10:54:46;1.63;;;0.68;;
37517;SDS011;23366;52.498;13.446;2023-05-07T10:59:55;1.92;;;0.90;;
37517;SDS011;23366;52.498;13.446;2023-05-07T11:02:21;1.83;;;1.17;;
37517;SDS011;23366;52.498;13.446;2023-05-07T11:05:18;4.05;;;1.30;;
37517;SDS011;23366;52.498;13.446;2023-05-07T11:07:53;1.08;;;0.60;;
37517;SDS011;23366;52.498;13.446;2023-05-07T11:13:18;1.73;;;1.40;;
37517;SDS011;23366;52.498;13.446;2023-05-07T11:16:03;2.65;;;1.05;;
37517;SDS011;23366;52.498;13.446;2023-05-07T11:18:45;1.60;;;1.02;;
37517;SDS011;23366;52.498;13.446;2023-05-07T11:21:34;0.90;;;0.88;;
37517;SDS011;23366;52.498;13.446;2023-05-07T11:24:08;1.35;;;1.08;;
37517;SDS011;23366;52.498;13.446;2023-05-07T11:26:45;1.30;;;1.08;;
37517;SDS011;23366;52.498;13.446;2023-05-07T11:29:18;1.50;;;0.80;;
37517;SDS011;23366;52.498;13.446;2023-05-07T11:31:48;3.65;;;1.17;;
37517;SDS011;23366;52.498;13.446;2023-05-07T11:34:21;0.75;;;0.70;;
37517;SDS011;23366;52.498;13.446;2023-05-07T11:36:48;2.92;;;0.80;;
37517;SDS011;23366;52.498;13.446;2023-05-07T11:39:27;2.22;;;1.15;;
37517;SDS011;23366;52.498;13.446;2023-05-07T11:41:53;1.33;;;0.90;;
37517;SDS011;23366;52.498;13.446;2023-05-07T11:44:19;1.90;;;1.42;;
37517;SDS011;23366;52.498;13.446;2023-05-07T11:46:44;1.13;;;0.80;;
37517;SDS011;23366;52.498;13.446;2023-05-07T11:49:10;1.70;;;1.20;;
37517;SDS011;23366;52.498;13.446;2023-05-07T11:51:36;2.05;;;1.20;;
37517;SDS011;23366;52.498;13.446;2023-05-07T11:54:03;1.02;;;0.90;;
37517;SDS011;23366;52.498;13.446;2023-05-07T11:56:34;2.03;;;0.90;;
37517;SDS011;23366;52.498;13.446;2023-05-07T11:59:00;2.78;;;1.05;;
37517;SDS011;23366;52.498;13.446;2023-05-07T12:01:26;2.97;;;1.00;;
37517;SDS011;23366;52.498;13.446;2023-05-07T12:03:51;2.13;;;0.85;;
37517;SDS011;23366;52.498;13.446;2023-05-07T12:06:17;2.92;;;1.20;;
37517;SDS011;23366;52.498;13.446;2023-05-07T12:08:44;3.20;;;0.95;;
37517;SDS011;23366;52.498;13.446;2023-05-07T12:11:12;1.20;;;0.80;;
37517;SDS011;23366;52.498;13.446;2023-05-07T12:13:41;2.20;;;1.17;;
37517;SDS011;23366;52.498;13.446;2023-05-07T12:16:06;1.20;;;1.10;;
37517;SDS011;23366;52.498;13.446;2023-05-07T12:18:32;1.75;;;0.77;;
37517;SDS011;23366;52.498;13.446;2023-05-07T12:20:59;2.85;;;1.13;;
37517;SDS011;23366;52.498;13.446;2023-05-07T12:23:25;1.60;;;0.93;;
37517;SDS011;23366;52.498;13.446;2023-05-07T12:25:50;2.65;;;0.90;;
37517;SDS011;23366;52.498;13.446;2023-05-07T12:28:16;2.25;;;1.27;;
37517;SDS011;23366;52.498;13.446;2023-05-07T12:30:43;2.92;;;0.85;;
37517;SDS011;23366;52.498;13.446;2023-05-07T12:33:10;0.77;;;0.70;;
37517;SDS011;23366;52.498;13.446;2023-05-07T12:35:37;3.08;;;0.75;;
37517;SDS011;23366;52.498;13.446;2023-05-07T12:38:06;1.55;;;1.15;;
37517;SDS011;23366;52.498;13.446;2023-05-07T12:40:46;3.53;;;1.30;;
37517;SDS011;23366;52.498;13.446;2023-05-07T12:43:19;1.92;;;0.70;;
37517;SDS011;23366;52.498;13.446;2023-05-07T12:45:46;1.58;;;0.93;;
37517;SDS011;23366;52.498;13.446;2023-05-07T12:48:16;2.50;;;1.08;;
37517;SDS011;23366;52.498;13.446;2023-05-07T12:50:49;1.17;;;0.85;;
37517;SDS011;23366;52.498;13.446;2023-05-07T12:53:28;1.25;;;0.95;;
37517;SDS011;23366;52.498;13.446;2023-05-07T12:55:57;1.63;;;1.00;;
37517;SDS011;23366;52.498;13.446;2023-05-07T12:58:27;5.35;;;1.10;;
37517;SDS011;23366;52.498;13.446;2023-05-07T13:00:54;1.40;;;1.13;;
37517;SDS011;23366;52.498;13.446;2023-05-07T13:03:36;3.97;;;0.82;;
37517;SDS011;23366;52.498;13.446;2023-05-07T13:06:03;1.17;;;0.65;;
37517;SDS011;23366;52.498;13.446;2023-05-07T13:08:38;2.53;;;0.80;;
37517;SDS011;23366;52.498;13.446;2023-05-07T13:11:08;2.90;;;0.75;;
37517;SDS011;23366;52.498;13.446;2023-05-07T13:13:35;1.38;;;0.90;;
37517;SDS011;23366;52.498;13.446;2023-05-07T13:16:02;7.88;;;0.80;;
37517;SDS011;23366;52.498;13.446;2023-05-07T13:18:29;1.40;;;1.20;;
37517;SDS011;23366;52.498;13.446;2023-05-07T13:20:56;1.67;;;1.23;;
37517;SDS011;23366;52.498;13.446;2023-05-07T13:23:22;2.28;;;0.80;;
37517;SDS011;23366;52.498;13.446;2023-05-07T13:25:47;1.00;;;0.70;;
37517;SDS011;23366;52.498;13.446;2023-05-07T13:28:14;1.98;;;1.20;;
37517;SDS011;23366;52.498;13.446;2023-05-07T13:30:39;1.17;;;0.77;;
37517;SDS011;23366;52.498;13.446;2023-05-07T13:33:05;3.03;;;0.95;;
37517;SDS011;23366;52.498;13.446;2023-05-07T13:35:31;2.33;;;1.08;;
37517;SDS011;23366;52.498;13.446;2023-05-07T13:37:56;1.42;;;1.13;;
37517;SDS011;23366;52.498;13.446;2023-05-07T13:40:22;1.88;;;0.95;;
37517;SDS011;23366;52.498;13.446;2023-05-07T13:42:48;1.58;;;1.42;;
37517;SDS011;23366;52.498;13.446;2023-05-07T13:45:13;1.23;;;0.93;;
37517;SDS011;23366;52.498;13.446;2023-05-07T13:47:40;1.00;;;0.70;;
37517;SDS011;23366;52.498;13.446;2023-05-07T13:50:07;1.33;;;0.85;;
37517;SDS011;23366;52.498;13.446;2023-05-07T13:52:33;1.27;;;0.70;;
37517;SDS011;23366;52.498;13.446;2023-05-07T13:54:59;2.15;;;1.20;;
37517;SDS011;23366;52.498;13.446;2023-05-07T13:57:24;0.85;;;0.68;;
37517;SDS011;23366;52.498;13.446;2023-05-07T13:59:50;1.00;;;0.88;;
37517;SDS011;23366;52.498;13.446;2023-05-07T14:02:15;1.15;;;0.75;;
37517;SDS011;23366;52.498;13.446;2023-05-07T14:04:41;1.20;;;0.70;;
37517;SDS011;23366;52.498;13.446;2023-05-07T14:07:06;1.10;;;0.63;;
37517;SDS011;23366;52.498;13.446;2023-05-07T14:09:32;1.48;;;0.90;;
37517;SDS011;23366;52.498;13.446;2023-05-07T14:11:58;3.30;;;1.23;;
37517;SDS011;23366;52.498;13.446;2023-05-07T14:14:23;1.88;;;0.80;;
37517;SDS011;23366;52.498;13.446;2023-05-07T14:16:49;1.85;;;1.20;;
37517;SDS011;23366;52.498;13.446;2023-05-07T14:19:15;3.13;;;1.15;;
37517;SDS011;23366;52.498;13.446;2023-05-07T14:21:40;1.17;;;1.05;;
37517;SDS011;23366;52.498;13.446;2023-05-07T14:24:08;3.67;;;1.35;;
37517;SDS011;23366;52.498;13.446;2023-05-07T14:26:34;2.05;;;1.02;;
37517;SDS011;23366;52.498;13.446;2023-05-07T14:29:00;2.25;;;0.60;;
37517;SDS011;23366;52.498;13.446;2023-05-07T14:31:25;2.53;;;0.80;;
37517;SDS011;23366;52.498;13.446;2023-05-07T14:33:51;1.48;;;0.93;;
37517;SDS011;23366;52.498;13.446;2023-05-07T14:36:17;0.73;;;0.50;;
37517;SDS011;23366;52.498;13.446;2023-05-07T14:38:45;1.17;;;0.70;;
37517;SDS011;23366;52.498;13.446;2023-05-07T14:41:11;1.38;;;1.00;;
37517;SDS011;23366;52.498;13.446;2023-05-07T14:43:36;1.85;;;0.90;;
37517;SDS011;23366;52.498;13.446;2023-05-07T14:46:02;1.35;;;1.08;;